Riverside, California
Current Conditions -  °F | °C
As of 8:53 PM on Tuesday 25 Nov 2014 (Local Time) from KRAL Reporting Station
Clear Clear  
Wind Chill: 59°   Ceiling: Unl
Heat Index: 59°   Visibility: 10mi
Dew Point: 21°   Wind: 0mph
Humidity: 23%   Direction: NA
Pressure: 30.31"   Gusts: NA
Location:  33.98°N, 117.37°W
Report Text: KRAL 260453Z AUTO 00000KT 10SM CLR 15/M06 A3031 RMK AO2 SLP252 T01501061
Loading
Personal Weather Stations






























Interactive Weather Map New forecast layout! Learn more

10-Day Weather Forecast

Advertisements
Track Severe Weather on mobile